Time;durP1;ratioP1;P1;durP2;ratioP2;P2;SDS_P1;SDS_P2;PMS_P1;PMS_P2;Temp;Humidity;BMP_temperature;BMP_pressure;BME280_temperature;BME280_humidity;BME280_pressure;Samples;Min_cycle;Max_cycle;Signal;HPM_P1;HPM_P2
2023/05/21 00:00:59;;;;;;;9.25;6.70;;;14.00;99.90;;;;;;5039808;28;20063;-63
2023/05/21 00:03:26;;;;;;;11.05;6.47;;;14.00;99.90;;;;;;5039545;28;20110;-62
2023/05/21 00:05:53;;;;;;;10.82;6.70;;;14.00;99.90;;;;;;5041653;28;20037;-62
2023/05/21 00:08:19;;;;;;;8.10;6.20;;;14.00;99.90;;;;;;5030646;28;20395;-62
2023/05/21 00:10:45;;;;;;;12.80;6.43;;;14.00;99.90;;;;;;5037700;28;20045;-62
2023/05/21 00:13:10;;;;;;;12.82;6.97;;;14.00;99.90;;;;;;5041596;28;20033;-62
2023/05/21 00:15:36;;;;;;;10.85;6.07;;;14.00;99.90;;;;;;5041175;28;20037;-62
2023/05/21 00:18:02;;;;;;;8.23;6.03;;;14.00;99.90;;;;;;5041237;28;20076;-63
2023/05/21 00:20:30;;;;;;;9.52;6.20;;;14.00;99.90;;;;;;5038375;28;20500;-63
2023/05/21 00:23:01;;;;;;;10.20;6.28;;;14.00;99.90;;;;;;5042076;28;20051;-62
2023/05/21 00:25:27;;;;;;;9.05;6.32;;;13.90;99.90;;;;;;5038605;28;20056;-62
2023/05/21 00:27:53;;;;;;;11.52;6.40;;;14.00;99.90;;;;;;5038104;28;20033;-63
2023/05/21 00:30:19;;;;;;;11.63;6.68;;;13.90;99.90;;;;;;5036277;28;20039;-62
2023/05/21 00:32:46;;;;;;;8.88;6.63;;;14.00;99.90;;;;;;5066882;28;20527;-62
2023/05/21 00:35:12;;;;;;;10.05;6.30;;;13.90;99.90;;;;;;5038947;28;20029;-61
2023/05/21 00:37:37;;;;;;;10.73;6.45;;;13.90;99.90;;;;;;5036979;28;20082;-61
2023/05/21 00:40:06;;;;;;;9.05;6.70;;;13.90;99.90;;;;;;5031868;28;20483;-63
2023/05/21 00:42:32;;;;;;;9.65;5.90;;;13.90;99.90;;;;;;5034952;28;20408;-61
2023/05/21 00:44:58;;;;;;;10.20;6.68;;;13.90;99.90;;;;;;5039498;28;20071;-61
2023/05/21 00:47:25;;;;;;;10.85;6.60;;;13.90;99.90;;;;;;5037262;28;20079;-62
2023/05/21 00:49:52;;;;;;;10.35;6.78;;;13.90;99.90;;;;;;5039794;28;20265;-62
2023/05/21 00:52:21;;;;;;;11.10;6.65;;;13.90;99.90;;;;;;5067690;28;20052;-62
2023/05/21 00:54:49;;;;;;;10.88;6.60;;;13.90;99.90;;;;;;5033268;28;20036;-62
2023/05/21 00:57:19;;;;;;;8.85;6.78;;;13.90;99.90;;;;;;5038810;28;20060;-62
2023/05/21 00:59:46;;;;;;;10.30;6.90;;;13.90;99.90;;;;;;5036764;28;20091;-62
2023/05/21 01:02:13;;;;;;;12.98;6.50;;;13.90;99.90;;;;;;5039855;28;20424;-63
2023/05/21 01:04:38;;;;;;;9.68;6.22;;;13.90;99.90;;;;;;5076194;28;20130;-61
2023/05/21 01:07:05;;;;;;;11.00;6.97;;;13.90;99.90;;;;;;5042599;28;20037;-62
2023/05/21 01:09:30;;;;;;;12.57;7.13;;;13.90;99.90;;;;;;5037943;28;20117;-62
2023/05/21 01:11:56;;;;;;;13.82;6.93;;;13.90;99.90;;;;;;5039070;28;20039;-62
2023/05/21 01:14:23;;;;;;;11.48;7.05;;;13.90;99.90;;;;;;5044681;28;20037;-62
2023/05/21 01:16:50;;;;;;;11.00;6.70;;;13.90;99.90;;;;;;5033167;28;20369;-63
2023/05/21 01:19:19;;;;;;;10.50;6.30;;;13.90;99.90;;;;;;5029359;28;20048;-62
2023/05/21 01:21:48;;;;;;;12.00;6.68;;;13.90;99.90;;;;;;5034272;28;20056;-62
2023/05/21 01:24:14;;;;;;;12.93;6.28;;;13.90;99.90;;;;;;5075643;28;20049;-62
2023/05/21 01:26:41;;;;;;;9.93;6.68;;;13.90;99.90;;;;;;5068883;28;20306;-63
2023/05/21 01:29:11;;;;;;;13.35;7.22;;;13.90;99.90;;;;;;5070361;28;20047;-61
2023/05/21 01:32:17;;;;;;;13.93;7.20;;;13.90;99.90;;;;;;5037102;28;20398;-62
2023/05/21 01:35:09;;;;;;;10.95;7.18;;;13.80;99.90;;;;;;5033596;28;20692;-61
2023/05/21 01:37:48;;;;;;;9.23;6.47;;;13.80;99.90;;;;;;5035339;28;20051;-62
2023/05/21 01:40:22;;;;;;;12.70;7.00;;;13.80;99.90;;;;;;5031799;28;20055;-61
2023/05/21 01:42:47;;;;;;;8.80;6.68;;;13.80;99.90;;;;;;5035368;28;20684;-62
2023/05/21 01:45:17;;;;;;;10.82;6.65;;;13.80;99.90;;;;;;5067348;28;20503;-62
2023/05/21 01:47:48;;;;;;;12.60;6.80;;;13.80;99.90;;;;;;5036710;28;20041;-62
2023/05/21 01:50:16;;;;;;;9.80;6.85;;;13.80;99.90;;;;;;5035174;28;20561;-62
2023/05/21 01:52:59;;;;;;;11.30;6.97;;;13.80;99.90;;;;;;5039611;28;20051;-62
2023/05/21 01:55:26;;;;;;;13.18;7.40;;;13.80;99.90;;;;;;5038765;28;20554;-62
2023/05/21 01:57:53;;;;;;;12.65;7.75;;;13.80;99.90;;;;;;5033685;28;20099;-62
2023/05/21 02:00:25;;;;;;;10.88;7.43;;;13.80;99.90;;;;;;5035591;28;20048;-61
2023/05/21 02:02:51;;;;;;;11.95;7.32;;;13.70;99.90;;;;;;5040735;28;20083;-62
2023/05/21 02:05:17;;;;;;;12.68;7.25;;;13.70;99.90;;;;;;5044960;28;20040;-62
2023/05/21 02:07:44;;;;;;;13.85;7.25;;;13.70;99.90;;;;;;5063523;28;20056;-61
2023/05/21 02:10:10;;;;;;;12.50;7.25;;;13.70;99.90;;;;;;5036621;28;20060;-61
2023/05/21 02:12:36;;;;;;;11.48;7.13;;;13.60;99.90;;;;;;5043380;28;20056;-61
2023/05/21 02:15:02;;;;;;;13.65;7.72;;;13.60;99.90;;;;;;5047545;28;20033;-62
2023/05/21 02:17:32;;;;;;;12.48;7.40;;;13.60;99.90;;;;;;5038897;28;20037;-61
2023/05/21 02:20:10;;;;;;;13.05;8.10;;;13.50;99.90;;;;;;5037953;28;20044;-62
2023/05/21 02:22:39;;;;;;;14.68;7.50;;;13.50;99.90;;;;;;5045349;28;20454;-62
2023/05/21 02:25:06;;;;;;;16.45;7.70;;;13.50;99.90;;;;;;5070819;28;20057;-62
2023/05/21 02:27:34;;;;;;;12.05;7.63;;;13.40;99.90;;;;;;5041589;28;20040;-62
2023/05/21 02:30:00;;;;;;;11.75;8.13;;;13.40;99.90;;;;;;5034357;28;20080;-62
2023/05/21 02:32:25;;;;;;;16.45;8.00;;;13.40;99.90;;;;;;5043990;28;20545;-63
2023/05/21 02:34:51;;;;;;;13.57;8.10;;;13.30;99.90;;;;;;5037333;28;20041;-62
2023/05/21 02:37:18;;;;;;;13.52;8.40;;;13.30;99.90;;;;;;5070242;28;20043;-61
2023/05/21 02:39:43;;;;;;;13.05;8.23;;;13.30;99.90;;;;;;5039426;28;20682;-62
2023/05/21 02:42:09;;;;;;;13.13;7.78;;;13.30;99.90;;;;;;5041908;28;20029;-62
2023/05/21 02:44:35;;;;;;;12.35;7.53;;;13.30;99.90;;;;;;5037478;28;20107;-61
2023/05/21 02:47:00;;;;;;;14.10;7.90;;;13.30;99.90;;;;;;5036246;28;20103;-62
2023/05/21 02:49:26;;;;;;;12.43;8.20;;;13.30;99.90;;;;;;5039032;28;20480;-63
2023/05/21 02:51:51;;;;;;;15.05;7.95;;;13.30;99.90;;;;;;5040884;28;20045;-61
2023/05/21 02:54:17;;;;;;;15.98;8.18;;;13.30;99.90;;;;;;5037764;28;20054;-62
2023/05/21 02:56:42;;;;;;;15.15;7.88;;;13.30;99.90;;;;;;5068797;28;20041;-62
2023/05/21 02:59:08;;;;;;;12.77;8.38;;;13.30;99.90;;;;;;5035228;28;20107;-61
2023/05/21 03:01:33;;;;;;;13.40;8.45;;;13.30;99.90;;;;;;5040608;28;20045;-62
2023/05/21 03:03:59;;;;;;;16.02;8.40;;;13.30;99.90;;;;;;5037082;28;20039;-62
2023/05/21 03:06:25;;;;;;;13.77;8.02;;;13.40;99.90;;;;;;5038985;28;20029;-61
2023/05/21 03:08:50;;;;;;;14.48;8.23;;;13.30;99.90;;;;;;5035700;28;20051;-62
2023/05/21 03:11:18;;;;;;;15.80;8.35;;;13.40;99.90;;;;;;5042513;28;20048;-63
2023/05/21 03:13:43;;;;;;;12.50;8.00;;;13.40;99.90;;;;;;5042335;28;20442;-62
2023/05/21 03:16:09;;;;;;;14.20;7.78;;;13.40;99.90;;;;;;5066468;28;20037;-62
2023/05/21 03:18:35;;;;;;;14.18;7.97;;;13.40;99.90;;;;;;5067253;28;20355;-61
2023/05/21 03:21:00;;;;;;;15.85;8.48;;;13.40;99.90;;;;;;5035694;28;20386;-62
2023/05/21 03:23:26;;;;;;;14.70;8.20;;;13.40;99.90;;;;;;5040128;28;20461;-61
2023/05/21 03:25:52;;;;;;;15.73;8.50;;;13.50;99.90;;;;;;5033854;28;20041;-61
2023/05/21 03:28:17;;;;;;;15.75;8.38;;;13.50;99.90;;;;;;5042820;28;20076;-62
2023/05/21 03:30:45;;;;;;;13.27;8.40;;;13.50;99.90;;;;;;5036010;28;20388;-61
2023/05/21 03:33:15;;;;;;;15.32;9.15;;;13.50;99.90;;;;;;5072907;28;20037;-62
2023/05/21 03:35:40;;;;;;;14.20;8.82;;;13.50;99.90;;;;;;5070238;28;20970;-63
2023/05/21 03:38:06;;;;;;;14.93;8.95;;;13.50;99.90;;;;;;5034902;28;20037;-62
2023/05/21 03:40:32;;;;;;;15.52;8.10;;;13.50;99.90;;;;;;5066651;28;20071;-62
2023/05/21 03:42:57;;;;;;;20.00;9.40;;;13.50;99.90;;;;;;5035607;28;20239;-61
2023/05/21 03:45:23;;;;;;;17.98;8.57;;;13.50;99.90;;;;;;5038635;28;20049;-62
2023/05/21 03:47:48;;;;;;;15.93;8.85;;;13.50;99.90;;;;;;5036656;28;20036;-61
2023/05/21 03:50:14;;;;;;;13.80;8.02;;;13.50;99.90;;;;;;5038640;28;20087;-62
2023/05/21 03:52:40;;;;;;;17.45;8.88;;;13.50;99.90;;;;;;5039485;28;20128;-63
2023/05/21 03:55:06;;;;;;;17.33;9.30;;;13.50;99.90;;;;;;5039208;28;20545;-62
2023/05/21 03:57:31;;;;;;;18.17;8.85;;;13.50;99.90;;;;;;5035094;28;20049;-62
2023/05/21 03:59:57;;;;;;;18.98;9.32;;;13.50;99.90;;;;;;5037132;28;20036;-63
2023/05/21 04:02:25;;;;;;;14.60;9.10;;;13.50;99.90;;;;;;5037401;28;20068;-63
2023/05/21 04:04:52;;;;;;;15.05;9.07;;;13.50;99.90;;;;;;5021401;28;20102;-61
2023/05/21 04:07:18;;;;;;;19.95;9.18;;;13.50;99.90;;;;;;5040250;28;20041;-62
2023/05/21 04:09:45;;;;;;;16.92;9.15;;;13.50;99.90;;;;;;5072442;28;20045;-62
2023/05/21 04:12:10;;;;;;;13.95;8.85;;;13.50;99.90;;;;;;5039746;28;20101;-62
2023/05/21 04:14:36;;;;;;;15.27;8.90;;;13.60;99.90;;;;;;5071767;28;20045;-62
2023/05/21 04:17:05;;;;;;;18.55;8.85;;;13.50;99.90;;;;;;5041761;28;20029;-62
2023/05/21 04:19:31;;;;;;;17.38;9.20;;;13.50;99.90;;;;;;5074462;28;20072;-62
2023/05/21 04:21:57;;;;;;;15.57;8.82;;;13.50;99.90;;;;;;5034293;28;20287;-62
2023/05/21 04:24:23;;;;;;;16.00;9.05;;;13.50;99.90;;;;;;5037161;28;20087;-62
2023/05/21 04:26:49;;;;;;;15.13;9.20;;;13.60;99.90;;;;;;5033337;28;20049;-63
2023/05/21 04:29:19;;;;;;;15.82;8.93;;;13.60;99.90;;;;;;5039940;28;20041;-62
2023/05/21 04:31:48;;;;;;;16.52;8.95;;;13.60;99.90;;;;;;5035456;28;20040;-62
2023/05/21 04:34:16;;;;;;;16.50;9.07;;;13.60;99.90;;;;;;5039291;28;20507;-62
2023/05/21 04:36:44;;;;;;;14.57;8.77;;;13.60;99.90;;;;;;5038079;28;20060;-62
2023/05/21 04:39:10;;;;;;;14.57;8.98;;;13.60;99.90;;;;;;5030674;28;20033;-62
2023/05/21 04:41:37;;;;;;;14.50;9.43;;;13.60;99.90;;;;;;5038731;28;20036;-62
2023/05/21 04:44:04;;;;;;;13.98;9.13;;;13.60;99.90;;;;;;5072596;28;20127;-63
2023/05/21 04:46:29;;;;;;;15.50;9.20;;;13.70;99.90;;;;;;5068107;28;20458;-62
2023/05/21 04:48:56;;;;;;;16.05;8.68;;;13.70;99.90;;;;;;5033351;28;20079;-62
2023/05/21 04:51:26;;;;;;;15.13;8.90;;;13.70;99.90;;;;;;5039453;28;20168;-62
2023/05/21 04:53:52;;;;;;;15.45;8.85;;;13.70;99.90;;;;;;5036505;28;20071;-62
2023/05/21 04:56:18;;;;;;;15.93;9.20;;;13.70;99.90;;;;;;5030573;28;20045;-61
2023/05/21 04:58:46;;;;;;;15.38;9.02;;;13.70;99.90;;;;;;5038209;28;20049;-62
2023/05/21 05:01:12;;;;;;;15.25;8.63;;;13.80;99.90;;;;;;5069255;28;20052;-61
2023/05/21 05:03:38;;;;;;;15.13;8.43;;;13.80;99.90;;;;;;5036303;28;20033;-61
2023/05/21 05:06:04;;;;;;;18.15;8.68;;;13.80;99.90;;;;;;5041167;28;20040;-62
2023/05/21 05:08:30;;;;;;;16.15;8.23;;;13.80;99.90;;;;;;5031693;28;20051;-62
2023/05/21 05:10:56;;;;;;;16.55;9.23;;;13.80;99.90;;;;;;5039691;28;20484;-62
2023/05/21 05:13:21;;;;;;;16.58;8.98;;;13.70;99.90;;;;;;5066851;28;20094;-62
2023/05/21 05:15:47;;;;;;;13.48;8.48;;;13.80;99.90;;;;;;5071787;28;20128;-62
2023/05/21 05:18:12;;;;;;;14.50;8.55;;;13.80;99.90;;;;;;5035499;28;20035;-62
2023/05/21 05:20:38;;;;;;;18.33;8.20;;;13.80;99.90;;;;;;5066210;28;20052;-62
2023/05/21 05:23:04;;;;;;;15.10;8.52;;;13.80;99.90;;;;;;5036540;28;20037;-61
2023/05/21 05:25:29;;;;;;;16.67;8.25;;;13.80;99.90;;;;;;5039556;28;20376;-61
2023/05/21 05:27:55;;;;;;;17.30;8.80;;;13.90;99.90;;;;;;5072062;28;20095;-62
2023/05/21 05:30:20;;;;;;;15.23;8.35;;;13.90;99.90;;;;;;5036675;28;20044;-63
2023/05/21 05:32:46;;;;;;;12.98;8.32;;;13.80;99.90;;;;;;5070707;28;20045;-61
2023/05/21 05:35:11;;;;;;;13.18;7.93;;;13.90;99.90;;;;;;5043344;28;20045;-62
2023/05/21 05:37:37;;;;;;;14.52;8.15;;;14.00;99.90;;;;;;5046186;28;20382;-62
2023/05/21 05:40:04;;;;;;;15.77;7.95;;;14.00;99.90;;;;;;5041646;28;20117;-62
2023/05/21 05:42:30;;;;;;;13.65;8.05;;;14.00;99.90;;;;;;5046410;28;20055;-61
2023/05/21 05:44:56;;;;;;;16.90;8.80;;;14.00;99.90;;;;;;5049395;28;20041;-62
2023/05/21 05:47:21;;;;;;;14.82;8.23;;;14.00;99.90;;;;;;5042428;28;20511;-61
2023/05/21 05:49:47;;;;;;;15.05;8.38;;;14.00;99.90;;;;;;5080641;28;20036;-62
2023/05/21 05:52:13;;;;;;;14.88;7.80;;;14.00;99.90;;;;;;5047217;28;20442;-62
2023/05/21 05:54:39;;;;;;;10.63;7.50;;;14.10;99.90;;;;;;5045876;28;20091;-62
2023/05/21 05:57:05;;;;;;;15.18;7.95;;;14.10;99.90;;;;;;5047023;28;20069;-62
2023/05/21 05:59:32;;;;;;;12.73;7.35;;;14.10;99.90;;;;;;5044046;28;20468;-61
2023/05/21 06:01:58;;;;;;;12.52;7.78;;;14.20;99.90;;;;;;5073893;28;20110;-62
2023/05/21 06:04:24;;;;;;;12.82;8.18;;;14.20;99.90;;;;;;5080781;28;20040;-62
2023/05/21 06:06:51;;;;;;;15.30;8.10;;;14.30;99.90;;;;;;5044534;28;20747;-62
2023/05/21 06:09:16;;;;;;;17.98;7.30;;;14.30;99.90;;;;;;5078235;28;20492;-62
2023/05/21 06:11:42;;;;;;;18.00;7.95;;;14.30;99.90;;;;;;5048722;28;20048;-63
2023/05/21 06:14:08;;;;;;;15.25;7.82;;;14.40;99.90;;;;;;5043978;28;20490;-62
2023/05/21 06:16:33;;;;;;;14.13;7.35;;;14.40;99.90;;;;;;5049213;28;20033;-63
2023/05/21 06:18:59;;;;;;;12.95;7.55;;;14.50;99.90;;;;;;5043664;28;20045;-62
2023/05/21 06:21:25;;;;;;;14.35;7.35;;;14.50;99.90;;;;;;5045391;28;20055;-62
2023/05/21 06:23:50;;;;;;;18.00;7.70;;;14.50;99.90;;;;;;5047561;28;20052;-62
2023/05/21 06:26:18;;;;;;;12.63;7.38;;;14.60;99.90;;;;;;5035633;28;20471;-62
2023/05/21 06:28:43;;;;;;;15.65;7.45;;;14.60;99.90;;;;;;5042757;28;20131;-62
2023/05/21 06:31:10;;;;;;;13.57;6.72;;;14.70;99.90;;;;;;5049664;28;20175;-62
2023/05/21 06:33:36;;;;;;;13.30;7.80;;;14.70;99.90;;;;;;5050507;28;20569;-62
2023/05/21 06:36:01;;;;;;;10.77;7.00;;;14.70;99.90;;;;;;5049480;28;20075;-62
2023/05/21 06:38:27;;;;;;;14.05;7.25;;;14.80;99.90;;;;;;5050506;28;20045;-63
2023/05/21 06:40:52;;;;;;;15.40;7.00;;;14.90;99.90;;;;;;5085283;28;20033;-62
2023/05/21 06:43:18;;;;;;;13.50;7.07;;;14.90;99.90;;;;;;5049010;28;20032;-62
2023/05/21 06:45:43;;;;;;;11.40;6.90;;;15.00;99.90;;;;;;5048193;28;20073;-62
2023/05/21 06:48:11;;;;;;;16.08;7.43;;;15.10;99.90;;;;;;5042254;28;20495;-62
2023/05/21 06:50:36;;;;;;;16.92;7.50;;;15.10;99.90;;;;;;5044688;28;20480;-62
2023/05/21 06:53:02;;;;;;;12.63;7.10;;;15.20;99.90;;;;;;5046957;28;20037;-61
2023/05/21 06:55:28;;;;;;;13.55;7.22;;;15.20;99.90;;;;;;5039204;28;20033;-62
2023/05/21 06:57:53;;;;;;;15.23;6.80;;;15.30;99.90;;;;;;5040033;28;20066;-62
2023/05/21 07:00:19;;;;;;;12.90;6.95;;;15.30;99.90;;;;;;5041843;28;20068;-61
2023/05/21 07:02:45;;;;;;;16.83;7.70;;;15.30;99.90;;;;;;5036051;28;20484;-62
2023/05/21 07:05:10;;;;;;;16.17;7.32;;;15.50;99.90;;;;;;5043839;28;20051;-62
2023/05/21 07:07:36;;;;;;;14.00;7.57;;;15.50;99.90;;;;;;5036917;28;20044;-62
2023/05/21 07:10:01;;;;;;;12.27;7.45;;;15.60;99.90;;;;;;5066886;28;20039;-62
2023/05/21 07:12:27;;;;;;;13.80;7.45;;;15.70;99.90;;;;;;5035491;28;20597;-62
2023/05/21 07:14:53;;;;;;;14.35;6.95;;;15.80;99.90;;;;;;5035466;28;20029;-62
2023/05/21 07:17:18;;;;;;;13.07;7.28;;;15.90;99.90;;;;;;5035391;28;20714;-63
2023/05/21 07:19:44;;;;;;;11.05;7.32;;;15.90;99.90;;;;;;5038532;28;20048;-63
2023/05/21 07:22:11;;;;;;;15.57;7.68;;;16.00;99.90;;;;;;5074806;28;20098;-62
2023/05/21 07:24:37;;;;;;;15.88;7.28;;;16.10;99.90;;;;;;5041256;28;20045;-63
2023/05/21 07:27:02;;;;;;;14.95;7.60;;;16.20;99.90;;;;;;5037360;28;20671;-62
2023/05/21 07:29:28;;;;;;;13.70;7.13;;;16.30;99.90;;;;;;5038923;28;20048;-63
2023/05/21 07:31:54;;;;;;;11.75;6.82;;;16.30;99.90;;;;;;5040264;28;20091;-63
2023/05/21 07:34:19;;;;;;;16.13;7.57;;;16.40;99.90;;;;;;5038275;28;20057;-62
2023/05/21 07:36:45;;;;;;;14.18;7.03;;;16.40;99.90;;;;;;5036223;28;20047;-62
2023/05/21 07:39:10;;;;;;;12.82;6.55;;;16.50;99.90;;;;;;5072174;28;20045;-63
2023/05/21 07:41:36;;;;;;;14.52;7.30;;;16.50;99.90;;;;;;5076713;28;21210;-62
2023/05/21 07:44:01;;;;;;;12.70;7.03;;;16.60;99.90;;;;;;5041487;28;20049;-62
2023/05/21 07:46:27;;;;;;;14.82;7.03;;;16.70;99.90;;;;;;5072355;28;20044;-62
2023/05/21 07:48:53;;;;;;;13.88;6.70;;;16.80;99.90;;;;;;5037176;28;20048;-63
2023/05/21 07:51:18;;;;;;;14.75;7.15;;;16.90;99.90;;;;;;5040377;28;20048;-63
2023/05/21 07:53:44;;;;;;;16.02;7.22;;;16.90;99.90;;;;;;5072864;28;20045;-62
2023/05/21 07:56:09;;;;;;;14.48;7.22;;;16.90;99.90;;;;;;5043192;28;20537;-62
2023/05/21 07:58:35;;;;;;;12.75;7.22;;;16.90;99.90;;;;;;5040375;28;20412;-62
2023/05/21 08:01:01;;;;;;;16.65;7.70;;;16.90;99.90;;;;;;5068435;28;20120;-62
2023/05/21 08:03:29;;;;;;;15.68;6.85;;;16.90;99.90;;;;;;5045493;28;20040;-61
2023/05/21 08:05:55;;;;;;;11.77;6.97;;;17.00;99.90;;;;;;5071876;28;20045;-62
2023/05/21 08:08:22;;;;;;;16.17;7.93;;;17.10;99.90;;;;;;5039865;28;20052;-62
2023/05/21 08:10:48;;;;;;;14.50;7.65;;;17.20;99.90;;;;;;5042044;28;20041;-62
2023/05/21 08:13:15;;;;;;;14.13;7.78;;;17.30;99.90;;;;;;5042880;28;20033;-61
2023/05/21 08:15:41;;;;;;;11.38;7.18;;;17.50;99.90;;;;;;5040514;28;20044;-63
2023/05/21 08:18:07;;;;;;;13.52;8.75;;;17.60;99.90;;;;;;5041260;28;20484;-63
2023/05/21 08:20:33;;;;;;;12.65;7.72;;;17.60;99.90;;;;;;5036383;28;20059;-62
2023/05/21 08:22:59;;;;;;;12.73;7.60;;;17.70;99.90;;;;;;5040806;28;20083;-61
2023/05/21 08:25:25;;;;;;;14.13;7.43;;;17.80;99.90;;;;;;5074954;28;20033;-62
2023/05/21 08:27:51;;;;;;;12.98;8.20;;;17.90;99.90;;;;;;5032532;28;20091;-62
2023/05/21 08:30:16;;;;;;;13.60;8.15;;;18.10;99.90;;;;;;5035663;28;20124;-63
2023/05/21 08:32:42;;;;;;;15.82;8.43;;;18.30;99.90;;;;;;5065332;28;20141;-62
2023/05/21 08:35:08;;;;;;;12.40;8.07;;;18.40;99.90;;;;;;5043883;28;20639;-62
2023/05/21 08:37:33;;;;;;;11.68;8.10;;;18.50;99.90;;;;;;5041519;28;20111;-62
2023/05/21 08:39:59;;;;;;;13.82;7.95;;;18.60;99.90;;;;;;5033751;28;20059;-61
2023/05/21 08:42:45;;;;;;;11.25;7.72;;;18.70;99.90;;;;;;5037031;28;20037;-62
2023/05/21 08:45:12;;;;;;;12.43;8.73;;;18.70;99.90;;;;;;5038378;28;20042;-62
2023/05/21 08:47:42;;;;;;;13.45;8.63;;;18.70;99.90;;;;;;5035134;28;20029;-63
2023/05/21 08:50:10;;;;;;;18.10;8.38;;;18.70;99.90;;;;;;5035578;28;20048;-61
2023/05/21 08:52:36;;;;;;;15.77;8.45;;;18.70;99.90;;;;;;5033180;28;20637;-62
2023/05/21 08:55:04;;;;;;;13.80;8.57;;;18.70;99.90;;;;;;5033723;28;20124;-61
2023/05/21 08:57:30;;;;;;;12.90;8.20;;;18.70;99.90;;;;;;5034448;28;20550;-62
2023/05/21 08:59:57;;;;;;;14.50;8.23;;;18.70;99.90;;;;;;5039649;28;20491;-62
2023/05/21 09:02:25;;;;;;;13.93;8.50;;;18.60;99.90;;;;;;5038963;28;20086;-62
2023/05/21 09:04:56;;;;;;;14.77;8.40;;;18.60;99.90;;;;;;5040981;28;20041;-63
2023/05/21 09:07:24;;;;;;;14.90;8.45;;;18.50;99.90;;;;;;5045804;28;20099;-62
2023/05/21 09:09:58;;;;;;;14.95;9.23;;;18.50;99.90;;;;;;5040429;28;20064;-62
2023/05/21 09:12:24;;;;;;;15.65;9.35;;;18.50;99.90;;;;;;5040654;28;20041;-62
2023/05/21 09:14:50;;;;;;;13.88;9.60;;;18.50;99.90;;;;;;5069448;28;20040;-61
2023/05/21 09:17:16;;;;;;;13.27;8.80;;;18.50;99.90;;;;;;5070891;28;20029;-63
2023/05/21 09:20:10;;;;;;;14.80;9.15;;;18.50;99.90;;;;;;5034305;28;20439;-63
2023/05/21 09:22:40;;;;;;;16.52;9.60;;;18.50;99.90;;;;;;5035601;28;20063;-62
2023/05/21 09:25:09;;;;;;;14.20;8.73;;;18.50;99.90;;;;;;5040561;28;20586;-62
2023/05/21 09:27:35;;;;;;;14.85;9.40;;;18.50;99.90;;;;;;5040576;28;20488;-61
2023/05/21 09:30:02;;;;;;;15.30;8.88;;;18.60;99.90;;;;;;5041547;28;20502;-62
2023/05/21 09:32:28;;;;;;;17.02;9.32;;;18.70;99.90;;;;;;5034740;28;20041;-62
2023/05/21 09:34:53;;;;;;;16.48;9.00;;;18.70;99.90;;;;;;5039116;28;20040;-62
2023/05/21 09:37:19;;;;;;;17.35;9.73;;;18.70;99.90;;;;;;5069439;28;20361;-62
2023/05/21 09:39:46;;;;;;;19.50;9.52;;;18.80;99.90;;;;;;5067649;28;20090;-62
2023/05/21 09:42:12;;;;;;;12.23;8.45;;;18.90;99.90;;;;;;5029393;28;20072;-64
2023/05/21 09:44:39;;;;;;;15.95;8.98;;;19.00;99.90;;;;;;5030408;28;20569;-62
2023/05/21 09:47:04;;;;;;;15.48;8.80;;;19.20;99.90;;;;;;5041868;28;20530;-63
2023/05/21 09:49:30;;;;;;;17.88;10.00;;;19.30;99.90;;;;;;5031423;28;20262;-61
2023/05/21 09:51:56;;;;;;;17.90;11.07;;;19.40;99.90;;;;;;5035217;28;20037;-63
2023/05/21 09:54:23;;;;;;;13.98;9.23;;;19.40;99.90;;;;;;5036383;28;20091;-61
2023/05/21 09:56:51;;;;;;;14.55;9.25;;;19.50;99.90;;;;;;5038980;28;20041;-64
2023/05/21 09:59:16;;;;;;;12.52;9.00;;;19.50;99.90;;;;;;5069397;28;20091;-61
2023/05/21 10:01:42;;;;;;;15.52;8.73;;;19.70;99.90;;;;;;5040472;28;20072;-62
2023/05/21 10:04:09;;;;;;;13.88;8.90;;;19.80;99.90;;;;;;5042753;28;20036;-62
2023/05/21 10:06:42;;;;;;;16.27;8.48;;;19.90;99.90;;;;;;5068978;28;20049;-62
2023/05/21 10:09:12;;;;;;;13.20;8.57;;;20.00;99.90;;;;;;5042527;28;20043;-62
2023/05/21 10:11:40;;;;;;;14.57;9.15;;;20.00;99.90;;;;;;5042995;28;20045;-62
2023/05/21 10:14:12;;;;;;;68.50;12.90;;;20.10;99.90;;;;;;5039254;28;20049;-62
2023/05/21 10:16:38;;;;;;;28.48;9.90;;;20.20;99.90;;;;;;5044567;28;20091;-62
2023/05/21 10:19:09;;;;;;;17.08;8.85;;;20.20;99.90;;;;;;5039177;28;20033;-62
2023/05/21 10:21:35;;;;;;;15.95;9.45;;;20.30;99.90;;;;;;5047725;28;20044;-62
2023/05/21 10:24:03;;;;;;;17.25;10.50;;;20.30;99.90;;;;;;5044845;28;20066;-63
2023/05/21 10:26:29;;;;;;;16.30;9.60;;;20.40;99.90;;;;;;5047288;28;20049;-61
2023/05/21 10:28:58;;;;;;;16.17;10.10;;;20.30;99.90;;;;;;5043826;28;20561;-62
2023/05/21 10:31:25;;;;;;;13.55;9.00;;;20.40;99.90;;;;;;5043163;28;20044;-62
2023/05/21 10:33:53;;;;;;;17.10;9.68;;;20.30;99.90;;;;;;5050248;28;20041;-62
2023/05/21 10:36:20;;;;;;;18.42;10.15;;;20.30;99.90;;;;;;5074855;28;20041;-63
2023/05/21 10:38:46;;;;;;;13.77;9.27;;;20.30;99.90;;;;;;5041211;28;20041;-61
2023/05/21 10:41:18;;;;;;;15.32;9.40;;;20.30;99.90;;;;;;5046326;28;20488;-62
2023/05/21 10:44:08;;;;;;;17.67;10.25;;;20.30;99.90;;;;;;5044747;28;20399;-62
2023/05/21 10:46:43;;;;;;;17.55;9.98;;;20.30;99.90;;;;;;5049800;28;20283;-62
2023/05/21 10:49:24;;;;;;;20.30;12.50;;;20.40;99.90;;;;;;5048259;28;20067;-62
2023/05/21 10:52:17;;;;;;;17.98;11.02;;;20.50;99.90;;;;;;5046142;28;20128;-63
2023/05/21 10:55:03;;;;;;;20.15;11.77;;;20.70;99.90;;;;;;5045249;28;20052;-62
2023/05/21 10:57:47;;;;;;;18.55;11.93;;;20.90;99.90;;;;;;5039375;28;20042;-62
2023/05/21 11:00:15;;;;;;;20.52;11.73;;;21.00;99.90;;;;;;5042098;28;20099;-62
2023/05/21 11:02:41;;;;;;;19.75;13.57;;;21.10;99.90;;;;;;5047303;28;20049;-62
2023/05/21 11:05:07;;;;;;;21.83;14.70;;;21.10;99.90;;;;;;5043335;28;20032;-63
2023/05/21 11:07:55;;;;;;;19.33;12.93;;;21.10;99.90;;;;;;5043476;28;20053;-63
2023/05/21 11:10:31;;;;;;;20.60;13.80;;;21.10;99.90;;;;;;5040900;28;20049;-63
2023/05/21 11:13:13;;;;;;;23.05;14.00;;;21.10;99.90;;;;;;5040790;28;20044;-64
2023/05/21 11:15:57;;;;;;;23.70;15.13;;;21.10;99.90;;;;;;5040610;28;20036;-63
2023/05/21 11:18:45;;;;;;;25.65;15.68;;;21.20;99.90;;;;;;5039824;28;20106;-62
2023/05/21 11:21:19;;;;;;;26.15;15.80;;;21.20;99.90;;;;;;5035199;28;20055;-62
2023/05/21 11:23:57;;;;;;;26.80;14.80;;;21.30;99.90;;;;;;5042610;28;20121;-63
2023/05/21 11:26:46;;;;;;;22.25;14.13;;;21.40;99.90;;;;;;5036631;28;20440;-61
2023/05/21 11:29:12;;;;;;;22.90;15.10;;;21.50;99.90;;;;;;5042812;28;20045;-62
2023/05/21 11:31:37;;;;;;;22.90;13.77;;;21.50;99.90;;;;;;5043713;28;20045;-62
2023/05/21 11:34:13;;;;;;;22.23;15.02;;;21.60;99.90;;;;;;5048746;28;20187;-61
2023/05/21 11:36:43;;;;;;;23.65;14.20;;;21.60;99.90;;;;;;5046015;28;20049;-62
2023/05/21 11:39:10;;;;;;;23.88;14.55;;;21.70;99.90;;;;;;5039177;28;20045;-63
2023/05/21 11:41:58;;;;;;;25.70;14.65;;;21.70;99.90;;;;;;5038733;28;20484;-63
2023/05/21 11:44:49;;;;;;;23.67;15.32;;;21.80;99.90;;;;;;5040755;28;20036;-62
2023/05/21 11:47:17;;;;;;;22.00;13.30;;;21.90;99.90;;;;;;5052984;28;20076;-63
2023/05/21 11:49:43;;;;;;;24.42;15.00;;;21.90;99.90;;;;;;5040338;28;20128;-61
2023/05/21 11:52:10;;;;;;;24.45;14.68;;;22.00;99.90;;;;;;5045819;28;20049;-63
2023/05/21 11:54:42;;;;;;;23.13;14.57;;;22.10;99.90;;;;;;5043493;28;20041;-62
2023/05/21 11:57:09;;;;;;;22.30;14.90;;;22.10;99.90;;;;;;5041768;28;20051;-62
2023/05/21 11:59:35;;;;;;;24.30;14.23;;;22.10;99.90;;;;;;5040991;28;20094;-64
2023/05/21 12:02:01;;;;;;;22.13;14.82;;;22.20;99.90;;;;;;5036631;28;20894;-62
2023/05/21 12:04:38;;;;;;;22.63;14.25;;;22.20;99.90;;;;;;5042881;28;20040;-62
2023/05/21 12:07:06;;;;;;;21.45;13.57;;;22.10;99.90;;;;;;5046717;28;20090;-63
2023/05/21 12:09:55;;;;;;;23.35;14.70;;;22.10;99.90;;;;;;5040283;28;20056;-62
2023/05/21 12:12:23;;;;;;;23.33;15.05;;;22.10;99.90;;;;;;5045701;28;20116;-64
2023/05/21 12:14:50;;;;;;;22.52;14.70;;;22.00;99.90;;;;;;5038691;28;20392;-63
2023/05/21 12:17:23;;;;;;;23.20;14.68;;;22.10;99.90;;;;;;5043267;28;20044;-63
2023/05/21 12:19:53;;;;;;;23.23;14.88;;;22.20;99.90;;;;;;5022863;28;21199;-63
2023/05/21 12:22:20;;;;;;;23.35;14.60;;;22.30;99.90;;;;;;5041712;28;20558;-63
2023/05/21 12:24:47;;;;;;;22.15;14.18;;;22.30;99.90;;;;;;5037415;28;20055;-63
2023/05/21 12:27:15;;;;;;;26.85;14.65;;;22.30;99.90;;;;;;5046932;28;20044;-63
2023/05/21 12:29:45;;;;;;;20.80;13.52;;;22.20;99.90;;;;;;5049029;28;20575;-63
2023/05/21 12:32:12;;;;;;;23.00;13.93;;;22.20;99.90;;;;;;5038283;28;20500;-63
2023/05/21 12:34:38;;;;;;;24.98;14.85;;;22.30;99.90;;;;;;5040459;28;20036;-63
2023/05/21 12:37:05;;;;;;;27.42;15.18;;;22.40;99.90;;;;;;5035607;28;20099;-62
2023/05/21 12:39:32;;;;;;;27.92;15.05;;;22.30;99.90;;;;;;5040013;28;20087;-63